Sac River (Missouri), Dadeville (06918440)

StateMissouriCurrentGood (159 cfs)
RiverSac RiverFlood - The river is flooding. Obstacles can be treacherous or deadly. The river should be avoided at this stage for casual trips and definitely for the inexperienced. Trips should be attempted only with protective gear and equipment.Flood(none)
Updated2019-10-13 18:30 (1 hour ago)High - The river is high and potentially dangerous, especially for the young and / or inexperienced. Normal stream obstacles are sometimes difficult to navigate. Extended distances can be attempted, but canoe travel may not be advisable.High(none)
Discharge159 cfs (median: 46 cfs)Good - Conditions are ideal for a canoe or kayak. Boats typically will drag on fewer than one-quarter of riffles, if at all, and portages are unnecessary or rare. Normal float lengths can be attempted without a problem.Good150
Height5.82 feetLow - River is low but can still be floated. Some riffles are okay but most come with significant dragging and might need a portage. Float lengths should be reduced to accommodate low flow, dragging, and portages.Low(none)
TrendFalling (falling over 24 hours)Poor - River is too low to float comfortably. Most or all riffles will drag or must be portaged and some obstacles (such as slick shelf rock) cause undue problems. Avoid the river at this stage for casual paddling trips.Poor(none)
USGSExternal icon USGS Site for Dadeville (06918440)LocationExternal icon Google Maps

Trending Data

Plot Image
ObservationHeightDischargeMaximum
Discharge
Minimum
Discharge
Mean
Discharge
P05P10P20P25P50
(Median)
P75P80P90P95
2019-10-13 18:30 5.82 159 858 (2010) 6 (1981) 119 12 17 20 23 46 119 169 367 517
2019-10-13 17:30 5.83 161 858 (2010) 6 (1981) 119 12 17 20 23 46 119 169 367 517
2019-10-13 16:30 5.84 163 858 (2010) 6 (1981) 119 12 17 20 23 46 119 169 367 517
2019-10-13 15:30 5.84 163 858 (2010) 6 (1981) 119 12 17 20 23 46 119 169 367 517
2019-10-13 14:30 5.85 165 858 (2010) 6 (1981) 119 12 17 20 23 46 119 169 367 517
2019-10-13 13:30 5.86 166 858 (2010) 6 (1981) 119 12 17 20 23 46 119 169 367 517
2019-10-13 12:30 5.87 168 858 (2010) 6 (1981) 119 12 17 20 23 46 119 169 367 517
2019-10-13 11:30 5.87 168 858 (2010) 6 (1981) 119 12 17 20 23 46 119 169 367 517
2019-10-13 10:30 5.89 172 858 (2010) 6 (1981) 119 12 17 20 23 46 119 169 367 517
2019-10-13 09:30 5.89 172 858 (2010) 6 (1981) 119 12 17 20 23 46 119 169 367 517
2019-10-13 08:30 5.90 174 858 (2010) 6 (1981) 119 12 17 20 23 46 119 169 367 517
2019-10-13 07:30 5.91 176 858 (2010) 6 (1981) 119 12 17 20 23 46 119 169 367 517
2019-10-13 06:30 5.92 178 858 (2010) 6 (1981) 119 12 17 20 23 46 119 169 367 517
2019-10-13 05:30 5.93 180 858 (2010) 6 (1981) 119 12 17 20 23 46 119 169 367 517
2019-10-13 04:30 5.94 182 858 (2010) 6 (1981) 119 12 17 20 23 46 119 169 367 517
2019-10-13 03:30 5.95 184 858 (2010) 6 (1981) 119 12 17 20 23 46 119 169 367 517
2019-10-13 02:30 5.96 186 858 (2010) 6 (1981) 119 12 17 20 23 46 119 169 367 517
2019-10-13 01:30 5.97 188 858 (2010) 6 (1981) 119 12 17 20 23 46 119 169 367 517
2019-10-13 00:30 5.97 188 858 (2010) 6 (1981) 119 12 17 20 23 46 119 169 367 517
2019-10-12 23:30 5.99 192 1250 (1970) 6 (1981) 137 12 16 21 22 47 120 144 396 674
2019-10-12 22:30 6.00 194 1250 (1970) 6 (1981) 137 12 16 21 22 47 120 144 396 674
2019-10-12 21:30 6.01 196 1250 (1970) 6 (1981) 137 12 16 21 22 47 120 144 396 674
2019-10-12 20:30 6.02 198 1250 (1970) 6 (1981) 137 12 16 21 22 47 120 144 396 674
2019-10-12 19:30 6.04 202 1250 (1970) 6 (1981) 137 12 16 21 22 47 120 144 396 674
2019-10-12 18:30 6.05 204 1250 (1970) 6 (1981) 137 12 16 21 22 47 120 144 396 674
2019-10-12 17:30 6.06 206 1250 (1970) 6 (1981) 137 12 16 21 22 47 120 144 396 674
2019-10-12 16:30 6.08 210 1250 (1970) 6 (1981) 137 12 16 21 22 47 120 144 396 674
2019-10-12 15:30 6.09 212 1250 (1970) 6 (1981) 137 12 16 21 22 47 120 144 396 674
2019-10-12 14:30 6.11 216 1250 (1970) 6 (1981) 137 12 16 21 22 47 120 144 396 674
2019-10-12 13:30 6.13 221 1250 (1970) 6 (1981) 137 12 16 21 22 47 120 144 396 674
2019-10-12 12:30 6.16 227 1250 (1970) 6 (1981) 137 12 16 21 22 47 120 144 396 674
2019-10-12 11:30 6.18 231 1250 (1970) 6 (1981) 137 12 16 21 22 47 120 144 396 674
2019-10-12 10:30 6.21 238 1250 (1970) 6 (1981) 137 12 16 21 22 47 120 144 396 674
2019-10-12 09:30 6.24 245 1250 (1970) 6 (1981) 137 12 16 21 22 47 120 144 396 674
2019-10-12 08:30 6.27 252 1250 (1970) 6 (1981) 137 12 16 21 22 47 120 144 396 674
2019-10-12 07:30 6.32 263 1250 (1970) 6 (1981) 137 12 16 21 22 47 120 144 396 674
2019-10-12 06:30 6.36 272 1250 (1970) 6 (1981) 137 12 16 21 22 47 120 144 396 674
2019-10-12 05:30 6.41 284 1250 (1970) 6 (1981) 137 12 16 21 22 47 120 144 396 674
2019-10-12 04:30 6.48 301 1250 (1970) 6 (1981) 137 12 16 21 22 47 120 144 396 674
2019-10-12 03:30 6.55 319 1250 (1970) 6 (1981) 137 12 16 21 22 47 120 144 396 674
2019-10-12 02:30 6.64 342 1250 (1970) 6 (1981) 137 12 16 21 22 47 120 144 396 674
2019-10-12 01:30 6.74 368 1250 (1970) 6 (1981) 137 12 16 21 22 47 120 144 396 674
2019-10-12 00:30 6.85 399 1250 (1970) 6 (1981) 137 12 16 21 22 47 120 144 396 674
2019-10-11 23:30 6.97 433 1550 (2010) 6 (1981) 133 11 16 21 22 47 119 151 415 508
2019-10-11 22:30 7.07 463 1550 (2010) 6 (1981) 133 11 16 21 22 47 119 151 415 508
2019-10-11 21:30 7.12 478 1550 (2010) 6 (1981) 133 11 16 21 22 47 119 151 415 508
2019-10-11 20:30 7.09 469 1550 (2010) 6 (1981) 133 11 16 21 22 47 119 151 415 508
2019-10-11 19:30 6.88 407 1550 (2010) 6 (1981) 133 11 16 21 22 47 119 151 415 508
2019-10-11 18:30 6.36 272 1550 (2010) 6 (1981) 133 11 16 21 22 47 119 151 415 508
2019-10-11 17:30 5.73 143 1550 (2010) 6 (1981) 133 11 16 21 22 47 119 151 415 508
2019-10-11 16:30 5.50 105 1550 (2010) 6 (1981) 133 11 16 21 22 47 119 151 415 508
2019-10-11 15:30 5.41 92 1550 (2010) 6 (1981) 133 11 16 21 22 47 119 151 415 508
2019-10-11 14:30 5.33 81 1550 (2010) 6 (1981) 133 11 16 21 22 47 119 151 415 508
2019-10-11 13:30 5.26 72 1550 (2010) 6 (1981) 133 11 16 21 22 47 119 151 415 508
2019-10-11 12:30 5.20 64 1550 (2010) 6 (1981) 133 11 16 21 22 47 119 151 415 508
2019-10-11 11:30 5.16 59 1550 (2010) 6 (1981) 133 11 16 21 22 47 119 151 415 508
2019-10-11 10:30 5.12 55 1550 (2010) 6 (1981) 133 11 16 21 22 47 119 151 415 508
2019-10-11 09:30 5.10 53 1550 (2010) 6 (1981) 133 11 16 21 22 47 119 151 415 508
2019-10-11 08:30 5.08 50 1550 (2010) 6 (1981) 133 11 16 21 22 47 119 151 415 508
2019-10-11 07:30 5.07 49 1550 (2010) 6 (1981) 133 11 16 21 22 47 119 151 415 508
2019-10-11 06:30 5.04 46 1550 (2010) 6 (1981) 133 11 16 21 22 47 119 151 415 508
2019-10-11 05:30 5.02 44 1550 (2010) 6 (1981) 133 11 16 21 22 47 119 151 415 508
2019-10-11 04:30 5.00 42 1550 (2010) 6 (1981) 133 11 16 21 22 47 119 151 415 508
2019-10-11 03:30 4.99 41 1550 (2010) 6 (1981) 133 11 16 21 22 47 119 151 415 508
2019-10-11 02:30 4.99 41 1550 (2010) 6 (1981) 133 11 16 21 22 47 119 151 415 508
2019-10-11 01:30 4.99 41 1550 (2010) 6 (1981) 133 11 16 21 22 47 119 151 415 508
2019-10-11 00:30 4.99 41 1550 (2010) 6 (1981) 133 11 16 21 22 47 119 151 415 508
2019-10-10 23:30 4.99 41 4230 (2010) 6 (1981) 215 11 14 18 20 49 134 177 457 973
2019-10-10 22:30 4.98 40 4230 (2010) 6 (1981) 215 11 14 18 20 49 134 177 457 973
2019-10-10 21:30 4.97 39 4230 (2010) 6 (1981) 215 11 14 18 20 49 134 177 457 973
2019-10-10 20:30 4.96 38 4230 (2010) 6 (1981) 215 11 14 18 20 49 134 177 457 973
2019-10-10 19:30 4.96 38 4230 (2010) 6 (1981) 215 11 14 18 20 49 134 177 457 973
2019-10-10 18:30 4.95 37 4230 (2010) 6 (1981) 215 11 14 18 20 49 134 177 457 973
2019-10-10 17:30 4.95 37 4230 (2010) 6 (1981) 215 11 14 18 20 49 134 177 457 973
2019-10-10 16:30 4.95 37 4230 (2010) 6 (1981) 215 11 14 18 20 49 134 177 457 973
2019-10-10 15:30 4.95 37 4230 (2010) 6 (1981) 215 11 14 18 20 49 134 177 457 973
2019-10-10 14:30 4.94 36 4230 (2010) 6 (1981) 215 11 14 18 20 49 134 177 457 973
2019-10-10 13:30 4.93 35 4230 (2010) 6 (1981) 215 11 14 18 20 49 134 177 457 973
2019-10-10 12:30 4.91 34 4230 (2010) 6 (1981) 215 11 14 18 20 49 134 177 457 973
2019-10-10 11:30 4.89 32 4230 (2010) 6 (1981) 215 11 14 18 20 49 134 177 457 973
2019-10-10 10:30 4.89 32 4230 (2010) 6 (1981) 215 11 14 18 20 49 134 177 457 973
2019-10-10 09:30 4.89 32 4230 (2010) 6 (1981) 215 11 14 18 20 49 134 177 457 973
2019-10-10 08:30 4.89 32 4230 (2010) 6 (1981) 215 11 14 18 20 49 134 177 457 973
2019-10-10 07:30 4.89 32 4230 (2010) 6 (1981) 215 11 14 18 20 49 134 177 457 973
2019-10-10 06:30 4.89 32 4230 (2010) 6 (1981) 215 11 14 18 20 49 134 177 457 973
2019-10-10 05:30 4.89 32 4230 (2010) 6 (1981) 215 11 14 18 20 49 134 177 457 973
2019-10-10 04:30 4.89 32 4230 (2010) 6 (1981) 215 11 14 18 20 49 134 177 457 973
2019-10-10 03:30 4.89 32 4230 (2010) 6 (1981) 215 11 14 18 20 49 134 177 457 973
2019-10-10 02:30 4.89 32 4230 (2010) 6 (1981) 215 11 14 18 20 49 134 177 457 973
2019-10-10 01:30 4.89 32 4230 (2010) 6 (1981) 215 11 14 18 20 49 134 177 457 973
2019-10-10 00:30 4.89 32 4230 (2010) 6 (1981) 215 11 14 18 20 49 134 177 457 973
2019-10-09 23:30 4.89 32 5960 (2010) 6 (1981) 219 10 15 17 20 48 115 130 518 629
2019-10-09 22:30 4.89 32 5960 (2010) 6 (1981) 219 10 15 17 20 48 115 130 518 629
2019-10-09 21:30 4.89 32 5960 (2010) 6 (1981) 219 10 15 17 20 48 115 130 518 629
2019-10-09 20:30 4.89 32 5960 (2010) 6 (1981) 219 10 15 17 20 48 115 130 518 629
2019-10-09 19:30 4.89 32 5960 (2010) 6 (1981) 219 10 15 17 20 48 115 130 518 629
2019-10-09 18:30 4.89 32 5960 (2010) 6 (1981) 219 10 15 17 20 48 115 130 518 629
2019-10-09 17:30 4.89 32 5960 (2010) 6 (1981) 219 10 15 17 20 48 115 130 518 629
2019-10-09 16:30 4.89 32 5960 (2010) 6 (1981) 219 10 15 17 20 48 115 130 518 629
2019-10-09 15:30 4.89 32 5960 (2010) 6 (1981) 219 10 15 17 20 48 115 130 518 629
2019-10-09 14:30 4.89 32 5960 (2010) 6 (1981) 219 10 15 17 20 48 115 130 518 629
2019-10-09 13:30 4.89 32 5960 (2010) 6 (1981) 219 10 15 17 20 48 115 130 518 629
2019-10-09 12:30 4.89 32 5960 (2010) 6 (1981) 219 10 15 17 20 48 115 130 518 629
2019-10-09 11:30 4.89 32 5960 (2010) 6 (1981) 219 10 15 17 20 48 115 130 518 629
2019-10-09 10:30 4.89 32 5960 (2010) 6 (1981) 219 10 15 17 20 48 115 130 518 629
2019-10-09 09:30 4.89 32 5960 (2010) 6 (1981) 219 10 15 17 20 48 115 130 518 629
2019-10-09 08:30 4.90 33 5960 (2010) 6 (1981) 219 10 15 17 20 48 115 130 518 629
2019-10-09 07:30 4.89 32 5960 (2010) 6 (1981) 219 10 15 17 20 48 115 130 518 629
2019-10-09 06:30 4.89 32 5960 (2010) 6 (1981) 219 10 15 17 20 48 115 130 518 629
2019-10-09 05:30 4.89 32 5960 (2010) 6 (1981) 219 10 15 17 20 48 115 130 518 629
2019-10-09 04:30 4.89 32 5960 (2010) 6 (1981) 219 10 15 17 20 48 115 130 518 629
2019-10-09 03:30 4.89 32 5960 (2010) 6 (1981) 219 10 15 17 20 48 115 130 518 629
2019-10-09 02:30 4.89 32 5960 (2010) 6 (1981) 219 10 15 17 20 48 115 130 518 629
2019-10-09 01:30 4.89 32 5960 (2010) 6 (1981) 219 10 15 17 20 48 115 130 518 629
2019-10-09 00:30 4.89 32 5960 (2010) 6 (1981) 219 10 15 17 20 48 115 130 518 629
2019-10-08 23:30 4.89 32 655 (1999) 6 (2007) 98 10 16 18 20 42 121 140 248 581
2019-10-08 22:30 4.89 32 655 (1999) 6 (2007) 98 10 16 18 20 42 121 140 248 581
2019-10-08 21:30 4.89 32 655 (1999) 6 (2007) 98 10 16 18 20 42 121 140 248 581
2019-10-08 20:30 4.89 32 655 (1999) 6 (2007) 98 10 16 18 20 42 121 140 248 581
2019-10-08 19:30 4.89 32 655 (1999) 6 (2007) 98 10 16 18 20 42 121 140 248 581
2019-10-08 18:30 4.89 32 655 (1999) 6 (2007) 98 10 16 18 20 42 121 140 248 581
2019-10-08 17:30 4.89 32 655 (1999) 6 (2007) 98 10 16 18 20 42 121 140 248 581
2019-10-08 16:30 4.89 32 655 (1999) 6 (2007) 98 10 16 18 20 42 121 140 248 581
2019-10-08 15:30 4.89 32 655 (1999) 6 (2007) 98 10 16 18 20 42 121 140 248 581
2019-10-08 14:30 4.89 32 655 (1999) 6 (2007) 98 10 16 18 20 42 121 140 248 581
2019-10-08 13:30 4.89 32 655 (1999) 6 (2007) 98 10 16 18 20 42 121 140 248 581
2019-10-08 12:30 4.89 32 655 (1999) 6 (2007) 98 10 16 18 20 42 121 140 248 581
2019-10-08 11:30 4.89 32 655 (1999) 6 (2007) 98 10 16 18 20 42 121 140 248 581
2019-10-08 10:30 4.89 32 655 (1999) 6 (2007) 98 10 16 18 20 42 121 140 248 581
2019-10-08 09:30 4.90 33 655 (1999) 6 (2007) 98 10 16 18 20 42 121 140 248 581
2019-10-08 08:30 4.90 33 655 (1999) 6 (2007) 98 10 16 18 20 42 121 140 248 581
2019-10-08 07:30 4.90 33 655 (1999) 6 (2007) 98 10 16 18 20 42 121 140 248 581
2019-10-08 06:30 4.90 33 655 (1999) 6 (2007) 98 10 16 18 20 42 121 140 248 581
2019-10-08 05:30 4.90 33 655 (1999) 6 (2007) 98 10 16 18 20 42 121 140 248 581
2019-10-08 04:30 4.90 33 655 (1999) 6 (2007) 98 10 16 18 20 42 121 140 248 581
2019-10-08 03:30 4.91 34 655 (1999) 6 (2007) 98 10 16 18 20 42 121 140 248 581
2019-10-08 02:30 4.91 34 655 (1999) 6 (2007) 98 10 16 18 20 42 121 140 248 581
2019-10-08 01:30 4.91 34 655 (1999) 6 (2007) 98 10 16 18 20 42 121 140 248 581
2019-10-08 00:30 4.91 34 655 (1999) 6 (2007) 98 10 16 18 20 42 121 140 248 581
2019-10-07 23:30 4.92 34 997 (1999) 5 (2007) 106 10 13 18 20 44 103 123 244 642
2019-10-07 22:30 4.92 34 997 (1999) 5 (2007) 106 10 13 18 20 44 103 123 244 642
2019-10-07 21:30 4.92 34 997 (1999) 5 (2007) 106 10 13 18 20 44 103 123 244 642
2019-10-07 20:30 4.92 34 997 (1999) 5 (2007) 106 10 13 18 20 44 103 123 244 642
2019-10-07 19:30 4.92 34 997 (1999) 5 (2007) 106 10 13 18 20 44 103 123 244 642
2019-10-07 18:30 4.92 34 997 (1999) 5 (2007) 106 10 13 18 20 44 103 123 244 642
2019-10-07 17:30 4.92 34 997 (1999) 5 (2007) 106 10 13 18 20 44 103 123 244 642
2019-10-07 16:30 4.92 34 997 (1999) 5 (2007) 106 10 13 18 20 44 103 123 244 642
2019-10-07 15:30 4.92 34 997 (1999) 5 (2007) 106 10 13 18 20 44 103 123 244 642
2019-10-07 14:30 4.92 34 997 (1999) 5 (2007) 106 10 13 18 20 44 103 123 244 642
2019-10-07 13:30 4.92 34 997 (1999) 5 (2007) 106 10 13 18 20 44 103 123 244 642
2019-10-07 12:30 4.93 35 997 (1999) 5 (2007) 106 10 13 18 20 44 103 123 244 642
2019-10-07 11:30 4.93 35 997 (1999) 5 (2007) 106 10 13 18 20 44 103 123 244 642
2019-10-07 10:30 4.93 35 997 (1999) 5 (2007) 106 10 13 18 20 44 103 123 244 642
2019-10-07 09:30 4.93 35 997 (1999) 5 (2007) 106 10 13 18 20 44 103 123 244 642
2019-10-07 08:30 4.93 35 997 (1999) 5 (2007) 106 10 13 18 20 44 103 123 244 642
2019-10-07 07:30 4.93 35 997 (1999) 5 (2007) 106 10 13 18 20 44 103 123 244 642
2019-10-07 06:30 4.93 35 997 (1999) 5 (2007) 106 10 13 18 20 44 103 123 244 642
2019-10-07 05:30 4.93 35 997 (1999) 5 (2007) 106 10 13 18 20 44 103 123 244 642
2019-10-07 04:30 4.93 35 997 (1999) 5 (2007) 106 10 13 18 20 44 103 123 244 642
2019-10-07 03:30 4.92 34 997 (1999) 5 (2007) 106 10 13 18 20 44 103 123 244 642
2019-10-07 02:30 4.92 34 997 (1999) 5 (2007) 106 10 13 18 20 44 103 123 244 642
2019-10-07 01:30 4.92 34 997 (1999) 5 (2007) 106 10 13 18 20 44 103 123 244 642
2019-10-07 00:30 4.92 34 997 (1999) 5 (2007) 106 10 13 18 20 44 103 123 244 642
2019-10-06 23:30 4.92 34 3110 (1999) 5 (2007) 159 10 12 19 20 42 107 119 199 864
2019-10-06 22:30 4.91 34 3110 (1999) 5 (2007) 159 10 12 19 20 42 107 119 199 864
2019-10-06 21:30 4.91 34 3110 (1999) 5 (2007) 159 10 12 19 20 42 107 119 199 864
2019-10-06 20:30 4.91 34 3110 (1999) 5 (2007) 159 10 12 19 20 42 107 119 199 864
2019-10-06 19:30 4.91 34 3110 (1999) 5 (2007) 159 10 12 19 20 42 107 119 199 864
2019-10-06 18:30 4.90 33 3110 (1999) 5 (2007) 159 10 12 19 20 42 107 119 199 864
2019-10-06 17:30 4.90 33 3110 (1999) 5 (2007) 159 10 12 19 20 42 107 119 199 864
2019-10-06 16:30 4.90 33 3110 (1999) 5 (2007) 159 10 12 19 20 42 107 119 199 864
2019-10-06 15:30 4.90 33 3110 (1999) 5 (2007) 159 10 12 19 20 42 107 119 199 864
2019-10-06 14:30 4.90 33 3110 (1999) 5 (2007) 159 10 12 19 20 42 107 119 199 864
2019-10-06 13:30 4.90 33 3110 (1999) 5 (2007) 159 10 12 19 20 42 107 119 199 864
2019-10-06 12:30 4.89 32 3110 (1999) 5 (2007) 159 10 12 19 20 42 107 119 199 864
2019-10-06 11:30 4.89 32 3110 (1999) 5 (2007) 159 10 12 19 20 42 107 119 199 864
2019-10-06 10:30 4.89 32 3110 (1999) 5 (2007) 159 10 12 19 20 42 107 119 199 864
2019-10-06 09:30 4.89 32 3110 (1999) 5 (2007) 159 10 12 19 20 42 107 119 199 864
2019-10-06 08:30 4.89 32 3110 (1999) 5 (2007) 159 10 12 19 20 42 107 119 199 864
2019-10-06 07:30 4.89 32 3110 (1999) 5 (2007) 159 10 12 19 20 42 107 119 199 864
2019-10-06 06:30 4.89 32 3110 (1999) 5 (2007) 159 10 12 19 20 42 107 119 199 864
2019-10-06 05:30 4.89 32 3110 (1999) 5 (2007) 159 10 12 19 20 42 107 119 199 864
2019-10-06 04:30 4.89 32 3110 (1999) 5 (2007) 159 10 12 19 20 42 107 119 199 864
2019-10-06 03:30 4.89 32 3110 (1999) 5 (2007) 159 10 12 19 20 42 107 119 199 864
2019-10-06 02:30 4.89 32 3110 (1999) 5 (2007) 159 10 12 19 20 42 107 119 199 864
2019-10-06 01:30 4.89 32 3110 (1999) 5 (2007) 159 10 12 19 20 42 107 119 199 864
2019-10-06 00:30 4.89 32 3110 (1999) 5 (2007) 159 10 12 19 20 42 107 119 199 864

A total of 187 rows are displayed for years 1967 through 2018.

Trips for Sac River (Missouri), Dadeville (06918440)

DateStartEndDistanceConditionDischargeHeightFishingDetails
Click for details2012-04-01 Rt U MO 245 Total trip distance: 4.3 miles4.3 Good 209 5.72 None NoneNone Bowe, Michelle
Edmond, Brian
Edmond, Julian
Bowe, Michelle; Edmond, Brian; Edmond, Julian
Water was muddy and filled with logs. Mostly, the river was navigable without too much trouble, but one point had a log jam that required a 150+ meter portage.Water was muddy and filled with logs.  Mostly, the river was navigable
without too much trouble, but one point had a log jam that required a 150+
meter portage. USGS Gauge Data:
Dadeville (06918440)
Discharge: 209
Height: 5.72
<b>USGS Gauge Data:</b></br />Dadeville (06918440)<br />Discharge: 209<br />Height: 5.72
Source: EdmondSource: Edmond
Click for details2010-07-11 FR 44 Rt U Total trip distance: 8.0 miles8.0 Good 124 5.28 None NoneNone Bowe, Michelle
Dawes, Katie
Edmond, Brian
Van Someren, Tom
Bowe, Michelle; Dawes, Katie; Edmond, Brian; Van Someren, Tom
No notes for this trip<i>No notes for this trip</i> USGS Gauge Data:
Dadeville (06918440)
Discharge: 124
Height: 5.28
<b>USGS Gauge Data:</b></br />Dadeville (06918440)<br />Discharge: 124<br />Height: 5.28
Source: EdmondSource: Edmond

A total of 2 rows are displayed.

Trip Summary for Sac River (Missouri), Dadeville (06918440)

Miles12.3
Trips2
People5
Dates2
Years2
Months2
Rows2
Sources1

Condition Descriptions

Fishing Conditions

Fish Species

Notes

Classic Trip List

The classic River Trips application is still available for use. It is updated with the new system using a data retrofit. It is no longer maintained. The original River Trips application is no longer updated (as of 1 Dec 2016) but can be checked for errors or for the condition of the data before it was converted to the new system.